sensor_id;sensor_type;location;lat;lon;timestamp;P1;durP1;ratioP1;P2;durP2;ratioP2
3311;SDS011;1668;49.648;8.570;2024-01-11T00:01:08;35.60;;;19.70;;
3311;SDS011;1668;49.648;8.570;2024-01-11T00:03:35;34.87;;;18.27;;
3311;SDS011;1668;49.648;8.570;2024-01-11T00:06:02;36.40;;;19.80;;
3311;SDS011;1668;49.648;8.570;2024-01-11T00:08:29;38.20;;;18.80;;
3311;SDS011;1668;49.648;8.570;2024-01-11T00:10:56;39.60;;;18.87;;
3311;SDS011;1668;49.648;8.570;2024-01-11T00:13:23;37.07;;;18.60;;
3311;SDS011;1668;49.648;8.570;2024-01-11T00:15:51;35.80;;;18.90;;
3311;SDS011;1668;49.648;8.570;2024-01-11T00:18:19;37.80;;;18.13;;
3311;SDS011;1668;49.648;8.570;2024-01-11T00:20:46;35.40;;;18.63;;
3311;SDS011;1668;49.648;8.570;2024-01-11T00:23:14;37.50;;;19.23;;
3311;SDS011;1668;49.648;8.570;2024-01-11T00:25:41;36.47;;;19.30;;
3311;SDS011;1668;49.648;8.570;2024-01-11T00:28:08;38.47;;;18.83;;
3311;SDS011;1668;49.648;8.570;2024-01-11T00:30:35;35.10;;;17.70;;
3311;SDS011;1668;49.648;8.570;2024-01-11T00:33:03;32.73;;;17.57;;
3311;SDS011;1668;49.648;8.570;2024-01-11T00:35:31;37.57;;;17.77;;
3311;SDS011;1668;49.648;8.570;2024-01-11T00:37:58;38.07;;;17.50;;
3311;SDS011;1668;49.648;8.570;2024-01-11T00:40:25;34.57;;;17.83;;
3311;SDS011;1668;49.648;8.570;2024-01-11T00:42:52;36.33;;;17.80;;
3311;SDS011;1668;49.648;8.570;2024-01-11T00:45:19;35.70;;;17.10;;
3311;SDS011;1668;49.648;8.570;2024-01-11T00:47:46;38.13;;;17.83;;
3311;SDS011;1668;49.648;8.570;2024-01-11T00:50:14;32.03;;;16.53;;
3311;SDS011;1668;49.648;8.570;2024-01-11T00:52:41;35.27;;;17.20;;
3311;SDS011;1668;49.648;8.570;2024-01-11T00:55:08;37.17;;;16.57;;
3311;SDS011;1668;49.648;8.570;2024-01-11T00:57:35;31.50;;;16.20;;
3311;SDS011;1668;49.648;8.570;2024-01-11T01:00:02;32.87;;;16.47;;
3311;SDS011;1668;49.648;8.570;2024-01-11T01:02:29;38.63;;;16.63;;
3311;SDS011;1668;49.648;8.570;2024-01-11T01:04:56;34.33;;;16.10;;
3311;SDS011;1668;49.648;8.570;2024-01-11T01:07:24;29.97;;;16.10;;
3311;SDS011;1668;49.648;8.570;2024-01-11T01:09:51;35.60;;;18.60;;
3311;SDS011;1668;49.648;8.570;2024-01-11T01:12:18;33.23;;;16.37;;
3311;SDS011;1668;49.648;8.570;2024-01-11T01:14:45;35.93;;;16.27;;
3311;SDS011;1668;49.648;8.570;2024-01-11T01:17:12;30.67;;;15.40;;
3311;SDS011;1668;49.648;8.570;2024-01-11T01:19:39;37.17;;;17.33;;
3311;SDS011;1668;49.648;8.570;2024-01-11T01:22:06;30.50;;;16.57;;
3311;SDS011;1668;49.648;8.570;2024-01-11T01:24:34;31.93;;;16.83;;
3311;SDS011;1668;49.648;8.570;2024-01-11T01:27:01;29.40;;;15.90;;
3311;SDS011;1668;49.648;8.570;2024-01-11T01:29:28;34.20;;;16.50;;
3311;SDS011;1668;49.648;8.570;2024-01-11T01:31:55;32.17;;;16.07;;
3311;SDS011;1668;49.648;8.570;2024-01-11T01:34:21;31.03;;;15.53;;
3311;SDS011;1668;49.648;8.570;2024-01-11T01:36:48;31.23;;;16.20;;
3311;SDS011;1668;49.648;8.570;2024-01-11T01:39:15;30.90;;;14.60;;
3311;SDS011;1668;49.648;8.570;2024-01-11T01:41:43;28.83;;;15.83;;
3311;SDS011;1668;49.648;8.570;2024-01-11T01:44:10;33.83;;;16.33;;
3311;SDS011;1668;49.648;8.570;2024-01-11T01:46:37;29.70;;;14.73;;
3311;SDS011;1668;49.648;8.570;2024-01-11T01:49:05;32.53;;;15.33;;
3311;SDS011;1668;49.648;8.570;2024-01-11T01:51:33;27.23;;;15.13;;
3311;SDS011;1668;49.648;8.570;2024-01-11T01:54:00;29.27;;;15.30;;
3311;SDS011;1668;49.648;8.570;2024-01-11T01:56:29;30.30;;;15.03;;
3311;SDS011;1668;49.648;8.570;2024-01-11T01:58:57;28.30;;;14.90;;
3311;SDS011;1668;49.648;8.570;2024-01-11T02:01:27;30.60;;;15.53;;
3311;SDS011;1668;49.648;8.570;2024-01-11T02:03:54;33.50;;;15.60;;
3311;SDS011;1668;49.648;8.570;2024-01-11T02:06:23;32.17;;;16.73;;
3311;SDS011;1668;49.648;8.570;2024-01-11T02:08:54;32.87;;;16.97;;
3311;SDS011;1668;49.648;8.570;2024-01-11T02:11:22;32.97;;;16.37;;
3311;SDS011;1668;49.648;8.570;2024-01-11T02:13:50;32.27;;;16.17;;
3311;SDS011;1668;49.648;8.570;2024-01-11T02:16:18;35.00;;;17.17;;
3311;SDS011;1668;49.648;8.570;2024-01-11T02:18:45;29.97;;;15.33;;
3311;SDS011;1668;49.648;8.570;2024-01-11T02:21:14;35.33;;;15.93;;
3311;SDS011;1668;49.648;8.570;2024-01-11T02:23:42;31.93;;;16.10;;
3311;SDS011;1668;49.648;8.570;2024-01-11T02:26:13;29.00;;;15.70;;
3311;SDS011;1668;49.648;8.570;2024-01-11T02:28:43;29.90;;;15.57;;
3311;SDS011;1668;49.648;8.570;2024-01-11T02:31:10;28.93;;;14.23;;
3311;SDS011;1668;49.648;8.570;2024-01-11T02:33:38;28.60;;;15.80;;
3311;SDS011;1668;49.648;8.570;2024-01-11T02:36:06;33.60;;;15.90;;
3311;SDS011;1668;49.648;8.570;2024-01-11T02:38:33;28.77;;;16.03;;
3311;SDS011;1668;49.648;8.570;2024-01-11T02:41:01;29.60;;;16.07;;
3311;SDS011;1668;49.648;8.570;2024-01-11T02:43:29;35.07;;;15.53;;
3311;SDS011;1668;49.648;8.570;2024-01-11T02:45:56;29.20;;;16.50;;
3311;SDS011;1668;49.648;8.570;2024-01-11T02:48:26;33.20;;;16.90;;
3311;SDS011;1668;49.648;8.570;2024-01-11T02:50:54;31.83;;;16.23;;
3311;SDS011;1668;49.648;8.570;2024-01-11T02:53:20;33.57;;;17.40;;
3311;SDS011;1668;49.648;8.570;2024-01-11T02:55:48;31.07;;;15.90;;
3311;SDS011;1668;49.648;8.570;2024-01-11T02:58:15;31.60;;;15.97;;
3311;SDS011;1668;49.648;8.570;2024-01-11T03:00:44;33.53;;;16.60;;
3311;SDS011;1668;49.648;8.570;2024-01-11T03:03:11;31.97;;;14.90;;
3311;SDS011;1668;49.648;8.570;2024-01-11T03:05:38;32.30;;;16.40;;
3311;SDS011;1668;49.648;8.570;2024-01-11T03:08:04;28.23;;;15.50;;
3311;SDS011;1668;49.648;8.570;2024-01-11T03:10:31;29.93;;;14.57;;
3311;SDS011;1668;49.648;8.570;2024-01-11T03:12:58;29.47;;;16.23;;
3311;SDS011;1668;49.648;8.570;2024-01-11T03:15:25;30.63;;;15.63;;
3311;SDS011;1668;49.648;8.570;2024-01-11T03:17:54;33.77;;;15.90;;
3311;SDS011;1668;49.648;8.570;2024-01-11T03:20:20;31.63;;;14.20;;
3311;SDS011;1668;49.648;8.570;2024-01-11T03:22:50;32.23;;;15.17;;
3311;SDS011;1668;49.648;8.570;2024-01-11T03:25:17;28.43;;;15.13;;
3311;SDS011;1668;49.648;8.570;2024-01-11T03:27:44;32.30;;;15.23;;
3311;SDS011;1668;49.648;8.570;2024-01-11T03:30:12;31.97;;;15.57;;
3311;SDS011;1668;49.648;8.570;2024-01-11T03:32:39;34.07;;;15.63;;
3311;SDS011;1668;49.648;8.570;2024-01-11T03:35:08;29.70;;;16.87;;
3311;SDS011;1668;49.648;8.570;2024-01-11T03:37:35;33.77;;;16.67;;
3311;SDS011;1668;49.648;8.570;2024-01-11T03:40:02;33.80;;;16.57;;
3311;SDS011;1668;49.648;8.570;2024-01-11T03:42:30;33.50;;;17.10;;
3311;SDS011;1668;49.648;8.570;2024-01-11T03:44:57;35.47;;;17.17;;
3311;SDS011;1668;49.648;8.570;2024-01-11T03:47:24;30.47;;;16.70;;
3311;SDS011;1668;49.648;8.570;2024-01-11T03:49:51;33.50;;;17.40;;
3311;SDS011;1668;49.648;8.570;2024-01-11T03:52:19;38.00;;;18.40;;
3311;SDS011;1668;49.648;8.570;2024-01-11T03:54:46;34.53;;;18.07;;
3311;SDS011;1668;49.648;8.570;2024-01-11T03:57:13;36.13;;;16.77;;
3311;SDS011;1668;49.648;8.570;2024-01-11T03:59:40;34.93;;;18.40;;
3311;SDS011;1668;49.648;8.570;2024-01-11T04:02:07;37.80;;;18.97;;
3311;SDS011;1668;49.648;8.570;2024-01-11T04:04:34;33.50;;;17.23;;
3311;SDS011;1668;49.648;8.570;2024-01-11T04:07:01;31.23;;;16.37;;
3311;SDS011;1668;49.648;8.570;2024-01-11T04:09:29;40.10;;;18.47;;
3311;SDS011;1668;49.648;8.570;2024-01-11T04:11:56;33.23;;;17.57;;
3311;SDS011;1668;49.648;8.570;2024-01-11T04:14:23;33.93;;;17.70;;
3311;SDS011;1668;49.648;8.570;2024-01-11T04:16:50;40.00;;;16.87;;
3311;SDS011;1668;49.648;8.570;2024-01-11T04:19:16;32.70;;;16.90;;
3311;SDS011;1668;49.648;8.570;2024-01-11T04:21:43;37.30;;;18.17;;
3311;SDS011;1668;49.648;8.570;2024-01-11T04:24:10;34.57;;;17.53;;
3311;SDS011;1668;49.648;8.570;2024-01-11T04:26:38;36.07;;;19.03;;
3311;SDS011;1668;49.648;8.570;2024-01-11T04:29:05;36.00;;;18.00;;
3311;SDS011;1668;49.648;8.570;2024-01-11T04:31:33;35.60;;;18.73;;
3311;SDS011;1668;49.648;8.570;2024-01-11T04:34:00;36.47;;;17.60;;
3311;SDS011;1668;49.648;8.570;2024-01-11T04:36:26;34.73;;;17.60;;
3311;SDS011;1668;49.648;8.570;2024-01-11T04:38:53;39.97;;;17.73;;
3311;SDS011;1668;49.648;8.570;2024-01-11T04:41:20;42.07;;;17.40;;
3311;SDS011;1668;49.648;8.570;2024-01-11T04:43:49;39.23;;;19.07;;
3311;SDS011;1668;49.648;8.570;2024-01-11T04:46:16;37.67;;;19.07;;
3311;SDS011;1668;49.648;8.570;2024-01-11T04:48:44;41.53;;;19.43;;
3311;SDS011;1668;49.648;8.570;2024-01-11T04:51:12;33.80;;;18.33;;
3311;SDS011;1668;49.648;8.570;2024-01-11T04:53:40;38.30;;;17.33;;
3311;SDS011;1668;49.648;8.570;2024-01-11T04:56:07;40.10;;;18.10;;
3311;SDS011;1668;49.648;8.570;2024-01-11T04:58:35;36.77;;;18.27;;
3311;SDS011;1668;49.648;8.570;2024-01-11T05:03:37;38.03;;;16.40;;
3311;SDS011;1668;49.648;8.570;2024-01-11T05:06:04;32.47;;;17.40;;
3311;SDS011;1668;49.648;8.570;2024-01-11T05:08:31;34.20;;;17.67;;
3311;SDS011;1668;49.648;8.570;2024-01-11T05:10:58;37.70;;;18.53;;
3311;SDS011;1668;49.648;8.570;2024-01-11T05:13:25;34.37;;;17.70;;
3311;SDS011;1668;49.648;8.570;2024-01-11T05:15:52;34.77;;;16.97;;
3311;SDS011;1668;49.648;8.570;2024-01-11T05:18:20;39.93;;;18.77;;
3311;SDS011;1668;49.648;8.570;2024-01-11T05:20:47;39.70;;;19.10;;
3311;SDS011;1668;49.648;8.570;2024-01-11T05:23:14;33.07;;;17.90;;
3311;SDS011;1668;49.648;8.570;2024-01-11T05:25:41;39.17;;;18.53;;
3311;SDS011;1668;49.648;8.570;2024-01-11T05:28:08;33.27;;;17.33;;
3311;SDS011;1668;49.648;8.570;2024-01-11T05:30:35;36.50;;;17.73;;
3311;SDS011;1668;49.648;8.570;2024-01-11T05:33:02;38.10;;;18.33;;
3311;SDS011;1668;49.648;8.570;2024-01-11T05:35:31;41.50;;;18.50;;
3311;SDS011;1668;49.648;8.570;2024-01-11T05:37:58;35.40;;;18.30;;
3311;SDS011;1668;49.648;8.570;2024-01-11T05:40:25;38.20;;;18.23;;
3311;SDS011;1668;49.648;8.570;2024-01-11T05:42:52;32.13;;;16.90;;
3311;SDS011;1668;49.648;8.570;2024-01-11T05:45:19;38.73;;;19.70;;
3311;SDS011;1668;49.648;8.570;2024-01-11T05:47:46;34.13;;;18.17;;
3311;SDS011;1668;49.648;8.570;2024-01-11T05:50:13;46.27;;;19.47;;
3311;SDS011;1668;49.648;8.570;2024-01-11T05:52:42;35.57;;;17.90;;
3311;SDS011;1668;49.648;8.570;2024-01-11T05:55:09;36.73;;;18.40;;
3311;SDS011;1668;49.648;8.570;2024-01-11T05:57:35;39.57;;;19.20;;
3311;SDS011;1668;49.648;8.570;2024-01-11T06:00:03;37.40;;;17.70;;
3311;SDS011;1668;49.648;8.570;2024-01-11T06:02:31;32.80;;;17.80;;
3311;SDS011;1668;49.648;8.570;2024-01-11T06:04:59;41.70;;;19.47;;
3311;SDS011;1668;49.648;8.570;2024-01-11T06:07:26;37.67;;;17.97;;
3311;SDS011;1668;49.648;8.570;2024-01-11T06:09:54;39.33;;;17.13;;
3311;SDS011;1668;49.648;8.570;2024-01-11T06:12:21;38.93;;;18.83;;
3311;SDS011;1668;49.648;8.570;2024-01-11T06:14:48;41.13;;;19.37;;
3311;SDS011;1668;49.648;8.570;2024-01-11T06:17:15;35.30;;;18.27;;
3311;SDS011;1668;49.648;8.570;2024-01-11T06:19:42;35.93;;;18.50;;
3311;SDS011;1668;49.648;8.570;2024-01-11T06:22:09;37.97;;;19.63;;
3311;SDS011;1668;49.648;8.570;2024-01-11T06:24:36;42.33;;;17.97;;
3311;SDS011;1668;49.648;8.570;2024-01-11T06:27:04;42.43;;;20.97;;
3311;SDS011;1668;49.648;8.570;2024-01-11T06:29:31;44.50;;;21.30;;
3311;SDS011;1668;49.648;8.570;2024-01-11T06:31:58;40.93;;;19.63;;
3311;SDS011;1668;49.648;8.570;2024-01-11T06:34:25;46.37;;;20.10;;
3311;SDS011;1668;49.648;8.570;2024-01-11T06:36:53;47.83;;;20.20;;
3311;SDS011;1668;49.648;8.570;2024-01-11T06:39:20;40.67;;;20.03;;
3311;SDS011;1668;49.648;8.570;2024-01-11T06:41:47;42.63;;;20.80;;
3311;SDS011;1668;49.648;8.570;2024-01-11T06:44:15;43.47;;;19.80;;
3311;SDS011;1668;49.648;8.570;2024-01-11T06:46:42;40.53;;;20.60;;
3311;SDS011;1668;49.648;8.570;2024-01-11T06:49:10;36.93;;;19.03;;
3311;SDS011;1668;49.648;8.570;2024-01-11T06:51:37;47.40;;;20.70;;
3311;SDS011;1668;49.648;8.570;2024-01-11T06:54:04;44.60;;;21.40;;
3311;SDS011;1668;49.648;8.570;2024-01-11T06:56:31;49.37;;;21.63;;
3311;SDS011;1668;49.648;8.570;2024-01-11T06:58:58;46.17;;;20.20;;
3311;SDS011;1668;49.648;8.570;2024-01-11T07:01:26;47.33;;;22.60;;
3311;SDS011;1668;49.648;8.570;2024-01-11T07:03:53;42.50;;;19.70;;
3311;SDS011;1668;49.648;8.570;2024-01-11T07:06:21;46.13;;;21.00;;
3311;SDS011;1668;49.648;8.570;2024-01-11T07:08:48;45.87;;;21.53;;
3311;SDS011;1668;49.648;8.570;2024-01-11T07:11:14;45.83;;;22.03;;
3311;SDS011;1668;49.648;8.570;2024-01-11T07:13:41;47.40;;;21.57;;
3311;SDS011;1668;49.648;8.570;2024-01-11T07:16:08;47.30;;;21.90;;
3311;SDS011;1668;49.648;8.570;2024-01-11T07:18:37;46.87;;;21.60;;
3311;SDS011;1668;49.648;8.570;2024-01-11T07:21:04;51.00;;;21.97;;
3311;SDS011;1668;49.648;8.570;2024-01-11T07:23:31;39.37;;;20.33;;
3311;SDS011;1668;49.648;8.570;2024-01-11T07:25:57;47.03;;;22.80;;
3311;SDS011;1668;49.648;8.570;2024-01-11T07:28:24;49.10;;;22.03;;
3311;SDS011;1668;49.648;8.570;2024-01-11T07:30:51;46.00;;;21.90;;
3311;SDS011;1668;49.648;8.570;2024-01-11T07:33:19;47.00;;;22.00;;
3311;SDS011;1668;49.648;8.570;2024-01-11T07:35:47;45.07;;;21.60;;
3311;SDS011;1668;49.648;8.570;2024-01-11T07:38:14;49.73;;;23.53;;
3311;SDS011;1668;49.648;8.570;2024-01-11T07:40:41;44.20;;;21.40;;
3311;SDS011;1668;49.648;8.570;2024-01-11T07:43:08;44.97;;;21.40;;
3311;SDS011;1668;49.648;8.570;2024-01-11T07:45:35;44.30;;;20.07;;
3311;SDS011;1668;49.648;8.570;2024-01-11T07:48:02;43.90;;;21.23;;
3311;SDS011;1668;49.648;8.570;2024-01-11T07:50:30;45.73;;;22.23;;
3311;SDS011;1668;49.648;8.570;2024-01-11T07:52:58;44.20;;;22.07;;
3311;SDS011;1668;49.648;8.570;2024-01-11T07:55:26;48.37;;;22.30;;
3311;SDS011;1668;49.648;8.570;2024-01-11T07:57:53;43.70;;;22.77;;
3311;SDS011;1668;49.648;8.570;2024-01-11T08:00:20;48.07;;;21.93;;
3311;SDS011;1668;49.648;8.570;2024-01-11T08:02:48;48.23;;;21.50;;
3311;SDS011;1668;49.648;8.570;2024-01-11T08:05:15;49.03;;;22.60;;
3311;SDS011;1668;49.648;8.570;2024-01-11T08:07:42;50.40;;;22.80;;
3311;SDS011;1668;49.648;8.570;2024-01-11T08:10:11;46.97;;;22.90;;
3311;SDS011;1668;49.648;8.570;2024-01-11T08:12:38;45.27;;;22.50;;
3311;SDS011;1668;49.648;8.570;2024-01-11T08:15:05;43.63;;;21.37;;
3311;SDS011;1668;49.648;8.570;2024-01-11T08:17:36;44.63;;;20.47;;
3311;SDS011;1668;49.648;8.570;2024-01-11T08:20:03;47.43;;;22.23;;
3311;SDS011;1668;49.648;8.570;2024-01-11T08:22:33;49.37;;;23.73;;
3311;SDS011;1668;49.648;8.570;2024-01-11T08:25:01;44.80;;;21.83;;
3311;SDS011;1668;49.648;8.570;2024-01-11T08:27:31;44.27;;;21.50;;
3311;SDS011;1668;49.648;8.570;2024-01-11T08:29:58;44.50;;;21.57;;
3311;SDS011;1668;49.648;8.570;2024-01-11T08:32:26;49.13;;;22.90;;
3311;SDS011;1668;49.648;8.570;2024-01-11T08:34:53;46.97;;;22.77;;
3311;SDS011;1668;49.648;8.570;2024-01-11T08:37:20;48.83;;;22.47;;
3311;SDS011;1668;49.648;8.570;2024-01-11T08:39:48;47.27;;;23.60;;
3311;SDS011;1668;49.648;8.570;2024-01-11T08:42:15;50.57;;;23.50;;
3311;SDS011;1668;49.648;8.570;2024-01-11T08:44:45;45.93;;;21.93;;
3311;SDS011;1668;49.648;8.570;2024-01-11T08:47:12;48.77;;;22.93;;
3311;SDS011;1668;49.648;8.570;2024-01-11T08:49:40;49.43;;;23.93;;
3311;SDS011;1668;49.648;8.570;2024-01-11T08:52:07;54.13;;;23.53;;
3311;SDS011;1668;49.648;8.570;2024-01-11T08:54:34;50.00;;;24.47;;
3311;SDS011;1668;49.648;8.570;2024-01-11T08:57:01;48.40;;;24.53;;
3311;SDS011;1668;49.648;8.570;2024-01-11T08:59:29;48.77;;;23.03;;
3311;SDS011;1668;49.648;8.570;2024-01-11T09:01:57;43.60;;;22.23;;
3311;SDS011;1668;49.648;8.570;2024-01-11T09:04:24;53.70;;;25.50;;
3311;SDS011;1668;49.648;8.570;2024-01-11T09:06:53;57.63;;;28.17;;
3311;SDS011;1668;49.648;8.570;2024-01-11T09:09:21;51.47;;;23.20;;
3311;SDS011;1668;49.648;8.570;2024-01-11T09:11:48;53.83;;;25.63;;
3311;SDS011;1668;49.648;8.570;2024-01-11T09:14:15;47.57;;;23.73;;
3311;SDS011;1668;49.648;8.570;2024-01-11T09:16:42;51.53;;;24.07;;
3311;SDS011;1668;49.648;8.570;2024-01-11T09:19:11;49.13;;;25.50;;
3311;SDS011;1668;49.648;8.570;2024-01-11T09:21:38;46.20;;;23.23;;
3311;SDS011;1668;49.648;8.570;2024-01-11T09:24:06;44.87;;;23.83;;
3311;SDS011;1668;49.648;8.570;2024-01-11T09:26:33;45.83;;;22.57;;
3311;SDS011;1668;49.648;8.570;2024-01-11T09:29:01;44.97;;;23.40;;
3311;SDS011;1668;49.648;8.570;2024-01-11T09:31:28;51.40;;;23.43;;
3311;SDS011;1668;49.648;8.570;2024-01-11T09:33:55;45.87;;;22.83;;
3311;SDS011;1668;49.648;8.570;2024-01-11T09:36:24;45.67;;;22.60;;
3311;SDS011;1668;49.648;8.570;2024-01-11T09:38:51;44.60;;;22.80;;
3311;SDS011;1668;49.648;8.570;2024-01-11T09:41:18;46.70;;;23.87;;
3311;SDS011;1668;49.648;8.570;2024-01-11T09:43:45;44.53;;;22.93;;
3311;SDS011;1668;49.648;8.570;2024-01-11T09:46:17;52.63;;;24.73;;
3311;SDS011;1668;49.648;8.570;2024-01-11T09:48:46;55.97;;;24.07;;
3311;SDS011;1668;49.648;8.570;2024-01-11T09:51:15;49.10;;;23.43;;
3311;SDS011;1668;49.648;8.570;2024-01-11T09:53:43;46.57;;;21.97;;
3311;SDS011;1668;49.648;8.570;2024-01-11T09:56:10;48.87;;;23.03;;
3311;SDS011;1668;49.648;8.570;2024-01-11T09:58:37;48.70;;;22.90;;
3311;SDS011;1668;49.648;8.570;2024-01-11T10:01:09;54.43;;;23.90;;
3311;SDS011;1668;49.648;8.570;2024-01-11T10:03:38;55.00;;;24.10;;
3311;SDS011;1668;49.648;8.570;2024-01-11T10:06:06;49.00;;;23.50;;
3311;SDS011;1668;49.648;8.570;2024-01-11T10:08:35;50.27;;;24.00;;
3311;SDS011;1668;49.648;8.570;2024-01-11T10:11:04;45.90;;;22.87;;
3311;SDS011;1668;49.648;8.570;2024-01-11T10:13:31;47.77;;;23.80;;
3311;SDS011;1668;49.648;8.570;2024-01-11T10:16:07;46.20;;;22.70;;
3311;SDS011;1668;49.648;8.570;2024-01-11T10:18:35;49.93;;;25.17;;
3311;SDS011;1668;49.648;8.570;2024-01-11T10:21:02;52.60;;;24.90;;
3311;SDS011;1668;49.648;8.570;2024-01-11T10:23:32;47.33;;;23.30;;
3311;SDS011;1668;49.648;8.570;2024-01-11T10:26:00;49.50;;;23.97;;
3311;SDS011;1668;49.648;8.570;2024-01-11T10:28:29;56.07;;;23.47;;
3311;SDS011;1668;49.648;8.570;2024-01-11T10:30:57;41.63;;;22.80;;
3311;SDS011;1668;49.648;8.570;2024-01-11T10:33:25;53.83;;;26.20;;
3311;SDS011;1668;49.648;8.570;2024-01-11T10:35:52;52.67;;;25.50;;
3311;SDS011;1668;49.648;8.570;2024-01-11T10:38:19;43.77;;;23.20;;
3311;SDS011;1668;49.648;8.570;2024-01-11T10:40:48;48.37;;;24.20;;
3311;SDS011;1668;49.648;8.570;2024-01-11T10:43:18;50.27;;;25.10;;
3311;SDS011;1668;49.648;8.570;2024-01-11T10:45:49;50.83;;;24.93;;
3311;SDS011;1668;49.648;8.570;2024-01-11T10:48:19;45.13;;;23.37;;
3311;SDS011;1668;49.648;8.570;2024-01-11T10:50:49;46.33;;;22.60;;
3311;SDS011;1668;49.648;8.570;2024-01-11T10:53:25;50.87;;;23.03;;
3311;SDS011;1668;49.648;8.570;2024-01-11T10:56:02;51.50;;;23.97;;
3311;SDS011;1668;49.648;8.570;2024-01-11T10:58:31;52.97;;;24.83;;
3311;SDS011;1668;49.648;8.570;2024-01-11T11:01:02;47.57;;;23.67;;
3311;SDS011;1668;49.648;8.570;2024-01-11T11:03:30;51.67;;;25.37;;
3311;SDS011;1668;49.648;8.570;2024-01-11T11:05:59;48.23;;;23.00;;
3311;SDS011;1668;49.648;8.570;2024-01-11T11:08:27;45.87;;;23.60;;
3311;SDS011;1668;49.648;8.570;2024-01-11T11:10:55;43.00;;;22.57;;
3311;SDS011;1668;49.648;8.570;2024-01-11T11:13:23;44.23;;;22.70;;
3311;SDS011;1668;49.648;8.570;2024-01-11T11:15:50;46.73;;;23.80;;
3311;SDS011;1668;49.648;8.570;2024-01-11T11:18:19;44.83;;;23.23;;
3311;SDS011;1668;49.648;8.570;2024-01-11T11:20:46;45.80;;;23.90;;
3311;SDS011;1668;49.648;8.570;2024-01-11T11:23:17;45.10;;;23.10;;
3311;SDS011;1668;49.648;8.570;2024-01-11T11:25:46;49.67;;;23.37;;
3311;SDS011;1668;49.648;8.570;2024-01-11T11:28:14;51.90;;;23.90;;
3311;SDS011;1668;49.648;8.570;2024-01-11T11:30:44;50.00;;;23.60;;
3311;SDS011;1668;49.648;8.570;2024-01-11T11:33:16;48.13;;;23.03;;
3311;SDS011;1668;49.648;8.570;2024-01-11T11:35:45;50.43;;;23.27;;
3311;SDS011;1668;49.648;8.570;2024-01-11T11:38:22;45.87;;;23.23;;
3311;SDS011;1668;49.648;8.570;2024-01-11T11:40:51;40.07;;;21.97;;
3311;SDS011;1668;49.648;8.570;2024-01-11T11:43:20;52.70;;;25.17;;
3311;SDS011;1668;49.648;8.570;2024-01-11T11:45:47;44.23;;;23.20;;
3311;SDS011;1668;49.648;8.570;2024-01-11T11:51:19;48.27;;;24.90;;
3311;SDS011;1668;49.648;8.570;2024-01-11T11:53:46;46.60;;;24.10;;
3311;SDS011;1668;49.648;8.570;2024-01-11T11:56:15;48.00;;;22.80;;
3311;SDS011;1668;49.648;8.570;2024-01-11T11:58:44;42.23;;;23.33;;
3311;SDS011;1668;49.648;8.570;2024-01-11T12:01:14;42.40;;;22.07;;
3311;SDS011;1668;49.648;8.570;2024-01-11T12:03:42;41.33;;;23.60;;
3311;SDS011;1668;49.648;8.570;2024-01-11T12:06:14;43.73;;;23.10;;
3311;SDS011;1668;49.648;8.570;2024-01-11T12:08:43;42.80;;;24.77;;
3311;SDS011;1668;49.648;8.570;2024-01-11T12:11:14;46.03;;;24.03;;
3311;SDS011;1668;49.648;8.570;2024-01-11T12:13:43;40.80;;;22.40;;
3311;SDS011;1668;49.648;8.570;2024-01-11T12:16:11;43.97;;;23.20;;
3311;SDS011;1668;49.648;8.570;2024-01-11T12:18:42;43.80;;;23.97;;
3311;SDS011;1668;49.648;8.570;2024-01-11T12:21:09;45.50;;;24.37;;
3311;SDS011;1668;49.648;8.570;2024-01-11T12:23:36;45.53;;;24.80;;
3311;SDS011;1668;49.648;8.570;2024-01-11T12:26:15;48.30;;;23.73;;
3311;SDS011;1668;49.648;8.570;2024-01-11T12:28:47;45.90;;;22.73;;
3311;SDS011;1668;49.648;8.570;2024-01-11T12:31:15;40.23;;;22.70;;
3311;SDS011;1668;49.648;8.570;2024-01-11T12:33:44;42.90;;;23.20;;
3311;SDS011;1668;49.648;8.570;2024-01-11T12:36:12;44.27;;;24.57;;
3311;SDS011;1668;49.648;8.570;2024-01-11T12:38:45;44.17;;;24.10;;
3311;SDS011;1668;49.648;8.570;2024-01-11T12:41:15;46.20;;;24.03;;
3311;SDS011;1668;49.648;8.570;2024-01-11T12:43:42;45.50;;;23.90;;
3311;SDS011;1668;49.648;8.570;2024-01-11T12:46:10;40.93;;;23.30;;
3311;SDS011;1668;49.648;8.570;2024-01-11T12:48:37;39.83;;;24.23;;
3311;SDS011;1668;49.648;8.570;2024-01-11T12:51:04;46.50;;;25.23;;
3311;SDS011;1668;49.648;8.570;2024-01-11T12:53:31;42.07;;;23.03;;
3311;SDS011;1668;49.648;8.570;2024-01-11T12:56:02;41.47;;;23.97;;
3311;SDS011;1668;49.648;8.570;2024-01-11T12:58:34;42.63;;;24.57;;
3311;SDS011;1668;49.648;8.570;2024-01-11T13:01:01;37.27;;;23.30;;
3311;SDS011;1668;49.648;8.570;2024-01-11T13:03:29;40.37;;;23.60;;
3311;SDS011;1668;49.648;8.570;2024-01-11T13:05:56;42.27;;;23.90;;
3311;SDS011;1668;49.648;8.570;2024-01-11T13:08:24;39.80;;;23.37;;
3311;SDS011;1668;49.648;8.570;2024-01-11T13:10:52;37.70;;;23.27;;
3311;SDS011;1668;49.648;8.570;2024-01-11T13:13:19;44.47;;;25.63;;
3311;SDS011;1668;49.648;8.570;2024-01-11T13:15:47;42.73;;;23.47;;
3311;SDS011;1668;49.648;8.570;2024-01-11T13:18:16;44.03;;;25.00;;
3311;SDS011;1668;49.648;8.570;2024-01-11T13:20:42;42.80;;;23.80;;
3311;SDS011;1668;49.648;8.570;2024-01-11T13:23:13;43.47;;;26.10;;
3311;SDS011;1668;49.648;8.570;2024-01-11T13:25:40;44.27;;;26.17;;
3311;SDS011;1668;49.648;8.570;2024-01-11T13:28:08;44.90;;;26.90;;
3311;SDS011;1668;49.648;8.570;2024-01-11T13:30:36;44.50;;;26.67;;
3311;SDS011;1668;49.648;8.570;2024-01-11T13:33:05;45.13;;;26.30;;
3311;SDS011;1668;49.648;8.570;2024-01-11T13:35:34;46.17;;;27.90;;
3311;SDS011;1668;49.648;8.570;2024-01-11T13:38:01;44.50;;;25.50;;
3311;SDS011;1668;49.648;8.570;2024-01-11T13:40:29;46.57;;;28.20;;
3311;SDS011;1668;49.648;8.570;2024-01-11T13:42:56;46.20;;;27.80;;
3311;SDS011;1668;49.648;8.570;2024-01-11T13:45:24;53.00;;;28.90;;
3311;SDS011;1668;49.648;8.570;2024-01-11T13:47:51;47.30;;;26.70;;
3311;SDS011;1668;49.648;8.570;2024-01-11T13:50:21;49.03;;;27.60;;
3311;SDS011;1668;49.648;8.570;2024-01-11T13:52:49;45.17;;;26.40;;
3311;SDS011;1668;49.648;8.570;2024-01-11T13:55:16;46.07;;;25.77;;
3311;SDS011;1668;49.648;8.570;2024-01-11T13:57:44;47.40;;;26.10;;
3311;SDS011;1668;49.648;8.570;2024-01-11T14:00:12;43.03;;;25.87;;
3311;SDS011;1668;49.648;8.570;2024-01-11T14:02:39;42.87;;;25.37;;
3311;SDS011;1668;49.648;8.570;2024-01-11T14:05:07;44.53;;;25.00;;
3311;SDS011;1668;49.648;8.570;2024-01-11T14:07:38;42.10;;;24.73;;
3311;SDS011;1668;49.648;8.570;2024-01-11T14:10:06;47.23;;;25.20;;
3311;SDS011;1668;49.648;8.570;2024-01-11T14:12:34;46.33;;;24.23;;
3311;SDS011;1668;49.648;8.570;2024-01-11T14:15:02;44.10;;;25.17;;
3311;SDS011;1668;49.648;8.570;2024-01-11T14:17:29;39.80;;;23.60;;
3311;SDS011;1668;49.648;8.570;2024-01-11T14:19:56;41.50;;;23.10;;
3311;SDS011;1668;49.648;8.570;2024-01-11T14:22:23;45.10;;;23.60;;
3311;SDS011;1668;49.648;8.570;2024-01-11T14:24:52;42.67;;;23.77;;
3311;SDS011;1668;49.648;8.570;2024-01-11T14:27:19;42.73;;;23.87;;
3311;SDS011;1668;49.648;8.570;2024-01-11T14:29:47;39.40;;;22.03;;
3311;SDS011;1668;49.648;8.570;2024-01-11T14:32:14;47.10;;;23.70;;
3311;SDS011;1668;49.648;8.570;2024-01-11T14:34:42;43.77;;;22.93;;
3311;SDS011;1668;49.648;8.570;2024-01-11T14:37:10;44.40;;;23.03;;
3311;SDS011;1668;49.648;8.570;2024-01-11T14:39:37;42.77;;;23.67;;
3311;SDS011;1668;49.648;8.570;2024-01-11T14:42:05;48.07;;;25.33;;
3311;SDS011;1668;49.648;8.570;2024-01-11T14:44:34;41.10;;;23.10;;
3311;SDS011;1668;49.648;8.570;2024-01-11T14:47:01;45.60;;;24.03;;
3311;SDS011;1668;49.648;8.570;2024-01-11T14:49:28;45.90;;;23.53;;
3311;SDS011;1668;49.648;8.570;2024-01-11T14:51:55;39.70;;;21.97;;
3311;SDS011;1668;49.648;8.570;2024-01-11T14:54:22;44.93;;;24.17;;
3311;SDS011;1668;49.648;8.570;2024-01-11T14:56:49;45.43;;;24.57;;